Taylorville, Illinois
Current Conditions -  °F | °C
As of 9:35 AM on Friday 24 Oct 2014 (Local Time) from KTAZ Reporting Station
Moderate Fog Moderate Fog  
Wind Chill: 52°   Ceiling: 200
Heat Index: 52°   Visibility: 0.25mi
Dew Point: 52°   Wind: 8mph
Humidity: 100%   Direction: 280°W
Pressure: 30.11"   Gusts: NA
Location:  39.55°N, 89.29°W
Report Text: KTAZ 241435Z AUTO 28007KT 1/4SM FG OVC002 11/11 A3011 RMK AO2
Loading
Personal Weather Stations






























Interactive Weather Map
Tropical Storm Tracking
New forecast layout! Learn more

10-Day Weather Forecast

Advertisements
Track Severe Weather on mobile